sensor_id;sensor_type;location;lat;lon;timestamp;P1;durP1;ratioP1;P2;durP2;ratioP2
50789;SDS011;37287;47.554;7.844;2023-02-01T00:00:38;4.53;;;3.00;;
50789;SDS011;37287;47.554;7.844;2023-02-01T00:03:04;4.38;;;3.00;;
50789;SDS011;37287;47.554;7.844;2023-02-01T00:05:31;3.70;;;2.67;;
50789;SDS011;37287;47.554;7.844;2023-02-01T00:07:58;5.57;;;3.38;;
50789;SDS011;37287;47.554;7.844;2023-02-01T00:10:35;10.00;;;5.07;;
50789;SDS011;37287;47.554;7.844;2023-02-01T00:13:02;7.05;;;4.45;;
50789;SDS011;37287;47.554;7.844;2023-02-01T00:15:28;9.10;;;4.65;;
50789;SDS011;37287;47.554;7.844;2023-02-01T00:17:59;6.47;;;3.80;;
50789;SDS011;37287;47.554;7.844;2023-02-01T00:20:26;5.00;;;3.20;;
50789;SDS011;37287;47.554;7.844;2023-02-01T00:22:53;5.55;;;3.83;;
50789;SDS011;37287;47.554;7.844;2023-02-01T00:25:19;7.63;;;3.28;;
50789;SDS011;37287;47.554;7.844;2023-02-01T00:27:49;4.60;;;2.90;;
50789;SDS011;37287;47.554;7.844;2023-02-01T00:30:17;4.45;;;2.88;;
50789;SDS011;37287;47.554;7.844;2023-02-01T00:32:46;3.80;;;2.72;;
50789;SDS011;37287;47.554;7.844;2023-02-01T00:35:12;5.00;;;3.15;;
50789;SDS011;37287;47.554;7.844;2023-02-01T00:37:39;4.88;;;3.00;;
50789;SDS011;37287;47.554;7.844;2023-02-01T00:40:07;3.17;;;2.78;;
50789;SDS011;37287;47.554;7.844;2023-02-01T00:42:34;3.50;;;2.50;;
50789;SDS011;37287;47.554;7.844;2023-02-01T00:45:01;4.00;;;2.80;;
50789;SDS011;37287;47.554;7.844;2023-02-01T00:47:28;3.83;;;2.70;;
50789;SDS011;37287;47.554;7.844;2023-02-01T00:49:55;5.20;;;2.97;;
50789;SDS011;37287;47.554;7.844;2023-02-01T00:52:22;2.78;;;2.20;;
50789;SDS011;37287;47.554;7.844;2023-02-01T00:54:55;4.32;;;2.67;;
50789;SDS011;37287;47.554;7.844;2023-02-01T00:57:21;3.33;;;2.15;;
50789;SDS011;37287;47.554;7.844;2023-02-01T00:59:48;2.35;;;2.00;;
50789;SDS011;37287;47.554;7.844;2023-02-01T01:02:15;5.03;;;2.50;;
50789;SDS011;37287;47.554;7.844;2023-02-01T01:04:41;2.40;;;2.13;;
50789;SDS011;37287;47.554;7.844;2023-02-01T01:07:11;2.78;;;2.17;;
50789;SDS011;37287;47.554;7.844;2023-02-01T01:09:38;3.95;;;2.15;;
50789;SDS011;37287;47.554;7.844;2023-02-01T01:12:05;2.30;;;2.10;;
50789;SDS011;37287;47.554;7.844;2023-02-01T01:14:32;3.63;;;2.03;;
50789;SDS011;37287;47.554;7.844;2023-02-01T01:16:59;3.42;;;2.15;;
50789;SDS011;37287;47.554;7.844;2023-02-01T01:19:28;4.03;;;2.88;;
50789;SDS011;37287;47.554;7.844;2023-02-01T01:21:54;3.42;;;2.40;;
50789;SDS011;37287;47.554;7.844;2023-02-01T01:24:22;2.38;;;2.00;;
50789;SDS011;37287;47.554;7.844;2023-02-01T01:26:49;3.20;;;2.10;;
50789;SDS011;37287;47.554;7.844;2023-02-01T01:29:16;2.58;;;1.80;;
50789;SDS011;37287;47.554;7.844;2023-02-01T01:31:42;2.10;;;1.90;;
50789;SDS011;37287;47.554;7.844;2023-02-01T01:34:09;2.92;;;2.05;;
50789;SDS011;37287;47.554;7.844;2023-02-01T01:36:35;2.72;;;2.00;;
50789;SDS011;37287;47.554;7.844;2023-02-01T01:39:02;3.25;;;2.30;;
50789;SDS011;37287;47.554;7.844;2023-02-01T01:41:33;3.92;;;2.47;;
50789;SDS011;37287;47.554;7.844;2023-02-01T01:44:01;3.05;;;2.65;;
50789;SDS011;37287;47.554;7.844;2023-02-01T01:46:34;7.95;;;3.05;;
50789;SDS011;37287;47.554;7.844;2023-02-01T01:49:14;5.53;;;3.50;;
50789;SDS011;37287;47.554;7.844;2023-02-01T01:51:53;5.88;;;2.50;;
50789;SDS011;37287;47.554;7.844;2023-02-01T01:54:25;4.30;;;2.78;;
50789;SDS011;37287;47.554;7.844;2023-02-01T01:56:58;3.97;;;2.60;;
50789;SDS011;37287;47.554;7.844;2023-02-01T01:59:31;2.88;;;2.33;;
50789;SDS011;37287;47.554;7.844;2023-02-01T02:02:00;2.60;;;2.13;;
50789;SDS011;37287;47.554;7.844;2023-02-01T02:04:27;2.40;;;2.20;;
50789;SDS011;37287;47.554;7.844;2023-02-01T02:06:56;2.00;;;1.85;;
50789;SDS011;37287;47.554;7.844;2023-02-01T02:09:29;2.45;;;2.20;;
50789;SDS011;37287;47.554;7.844;2023-02-01T02:11:56;3.13;;;2.47;;
50789;SDS011;37287;47.554;7.844;2023-02-01T02:14:25;3.75;;;2.58;;
50789;SDS011;37287;47.554;7.844;2023-02-01T02:17:10;2.60;;;2.33;;
50789;SDS011;37287;47.554;7.844;2023-02-01T02:28:16;4.45;;;2.85;;
50789;SDS011;37287;47.554;7.844;2023-02-01T02:36:06;4.10;;;3.30;;
50789;SDS011;37287;47.554;7.844;2023-02-01T02:38:39;3.42;;;2.42;;
50789;SDS011;37287;47.554;7.844;2023-02-01T02:41:16;8.00;;;3.33;;
50789;SDS011;37287;47.554;7.844;2023-02-01T02:47:21;2.97;;;2.35;;
50789;SDS011;37287;47.554;7.844;2023-02-01T02:53:04;2.88;;;2.20;;
50789;SDS011;37287;47.554;7.844;2023-02-01T02:55:59;3.33;;;2.50;;
50789;SDS011;37287;47.554;7.844;2023-02-01T02:58:51;2.50;;;2.20;;
50789;SDS011;37287;47.554;7.844;2023-02-01T03:01:40;4.88;;;2.30;;
50789;SDS011;37287;47.554;7.844;2023-02-01T03:04:26;2.15;;;1.95;;
50789;SDS011;37287;47.554;7.844;2023-02-01T03:06:53;2.35;;;2.10;;
50789;SDS011;37287;47.554;7.844;2023-02-01T03:09:41;2.13;;;1.92;;
50789;SDS011;37287;47.554;7.844;2023-02-01T03:12:11;2.50;;;1.90;;
50789;SDS011;37287;47.554;7.844;2023-02-01T03:15:00;2.28;;;2.00;;
50789;SDS011;37287;47.554;7.844;2023-02-01T03:17:34;2.63;;;2.08;;
50789;SDS011;37287;47.554;7.844;2023-02-01T03:20:08;2.13;;;1.83;;
50789;SDS011;37287;47.554;7.844;2023-02-01T03:22:41;5.25;;;3.10;;
50789;SDS011;37287;47.554;7.844;2023-02-01T03:25:10;3.38;;;2.30;;
50789;SDS011;37287;47.554;7.844;2023-02-01T03:27:46;3.20;;;2.20;;
50789;SDS011;37287;47.554;7.844;2023-02-01T03:30:22;4.88;;;2.90;;
50789;SDS011;37287;47.554;7.844;2023-02-01T03:32:53;3.13;;;2.50;;
50789;SDS011;37287;47.554;7.844;2023-02-01T03:38:23;3.38;;;2.45;;
50789;SDS011;37287;47.554;7.844;2023-02-01T03:41:18;3.95;;;2.95;;
50789;SDS011;37287;47.554;7.844;2023-02-01T03:43:54;5.65;;;3.00;;
50789;SDS011;37287;47.554;7.844;2023-02-01T03:46:32;3.70;;;2.70;;
50789;SDS011;37287;47.554;7.844;2023-02-01T03:51:35;5.13;;;3.17;;
50789;SDS011;37287;47.554;7.844;2023-02-01T03:54:04;4.50;;;3.05;;
50789;SDS011;37287;47.554;7.844;2023-02-01T03:56:36;3.65;;;3.00;;
50789;SDS011;37287;47.554;7.844;2023-02-01T03:59:04;4.07;;;3.67;;
50789;SDS011;37287;47.554;7.844;2023-02-01T04:01:31;4.30;;;3.60;;
50789;SDS011;37287;47.554;7.844;2023-02-01T04:04:00;4.28;;;3.30;;
50789;SDS011;37287;47.554;7.844;2023-02-01T04:06:27;3.25;;;2.85;;
50789;SDS011;37287;47.554;7.844;2023-02-01T04:08:54;7.65;;;4.18;;
50789;SDS011;37287;47.554;7.844;2023-02-01T04:11:20;6.05;;;4.45;;
50789;SDS011;37287;47.554;7.844;2023-02-01T04:13:49;6.38;;;4.60;;
50789;SDS011;37287;47.554;7.844;2023-02-01T04:16:16;6.53;;;4.85;;
50789;SDS011;37287;47.554;7.844;2023-02-01T04:18:42;4.20;;;3.70;;
50789;SDS011;37287;47.554;7.844;2023-02-01T04:21:09;6.22;;;4.30;;
50789;SDS011;37287;47.554;7.844;2023-02-01T04:23:36;4.93;;;3.83;;
50789;SDS011;37287;47.554;7.844;2023-02-01T04:26:03;8.00;;;4.93;;
50789;SDS011;37287;47.554;7.844;2023-02-01T04:28:30;5.88;;;4.82;;
50789;SDS011;37287;47.554;7.844;2023-02-01T04:30:57;6.00;;;3.88;;
50789;SDS011;37287;47.554;7.844;2023-02-01T04:33:24;6.60;;;5.18;;
50789;SDS011;37287;47.554;7.844;2023-02-01T04:35:52;9.25;;;5.68;;
50789;SDS011;37287;47.554;7.844;2023-02-01T04:38:19;8.98;;;5.88;;
50789;SDS011;37287;47.554;7.844;2023-02-01T04:40:46;8.70;;;5.20;;
50789;SDS011;37287;47.554;7.844;2023-02-01T04:43:19;9.43;;;5.18;;
50789;SDS011;37287;47.554;7.844;2023-02-01T04:45:46;7.70;;;5.68;;
50789;SDS011;37287;47.554;7.844;2023-02-01T04:48:15;8.77;;;6.18;;
50789;SDS011;37287;47.554;7.844;2023-02-01T04:50:45;5.95;;;4.55;;
50789;SDS011;37287;47.554;7.844;2023-02-01T04:53:14;9.20;;;5.60;;
50789;SDS011;37287;47.554;7.844;2023-02-01T04:55:41;7.50;;;5.13;;
50789;SDS011;37287;47.554;7.844;2023-02-01T04:58:10;9.13;;;5.25;;
50789;SDS011;37287;47.554;7.844;2023-02-01T05:00:37;5.30;;;4.38;;
50789;SDS011;37287;47.554;7.844;2023-02-01T05:03:04;7.00;;;5.13;;
50789;SDS011;37287;47.554;7.844;2023-02-01T05:05:32;8.00;;;5.40;;
50789;SDS011;37287;47.554;7.844;2023-02-01T05:08:02;7.05;;;4.60;;
50789;SDS011;37287;47.554;7.844;2023-02-01T05:10:29;7.85;;;4.00;;
50789;SDS011;37287;47.554;7.844;2023-02-01T05:12:57;5.38;;;4.25;;
50789;SDS011;37287;47.554;7.844;2023-02-01T05:15:42;5.43;;;3.65;;
50789;SDS011;37287;47.554;7.844;2023-02-01T05:18:13;6.80;;;4.50;;
50789;SDS011;37287;47.554;7.844;2023-02-01T05:20:40;5.10;;;3.70;;
50789;SDS011;37287;47.554;7.844;2023-02-01T05:23:06;4.82;;;4.10;;
50789;SDS011;37287;47.554;7.844;2023-02-01T05:25:33;5.40;;;4.15;;
50789;SDS011;37287;47.554;7.844;2023-02-01T05:28:00;4.70;;;3.50;;
50789;SDS011;37287;47.554;7.844;2023-02-01T05:30:29;4.53;;;3.35;;
50789;SDS011;37287;47.554;7.844;2023-02-01T05:32:55;6.53;;;4.05;;
50789;SDS011;37287;47.554;7.844;2023-02-01T05:35:22;6.43;;;3.92;;
50789;SDS011;37287;47.554;7.844;2023-02-01T05:37:48;6.32;;;3.72;;
50789;SDS011;37287;47.554;7.844;2023-02-01T05:40:18;7.00;;;3.67;;
50789;SDS011;37287;47.554;7.844;2023-02-01T05:42:45;5.00;;;3.92;;
50789;SDS011;37287;47.554;7.844;2023-02-01T05:45:11;4.50;;;3.45;;
50789;SDS011;37287;47.554;7.844;2023-02-01T05:47:38;5.45;;;3.42;;
50789;SDS011;37287;47.554;7.844;2023-02-01T05:50:06;5.55;;;3.30;;
50789;SDS011;37287;47.554;7.844;2023-02-01T05:52:33;6.93;;;3.42;;
50789;SDS011;37287;47.554;7.844;2023-02-01T05:55:00;4.85;;;3.17;;
50789;SDS011;37287;47.554;7.844;2023-02-01T05:57:26;6.55;;;3.67;;
50789;SDS011;37287;47.554;7.844;2023-02-01T05:59:53;4.68;;;3.70;;
50789;SDS011;37287;47.554;7.844;2023-02-01T06:02:26;5.45;;;4.20;;
50789;SDS011;37287;47.554;7.844;2023-02-01T06:04:52;5.35;;;3.70;;
50789;SDS011;37287;47.554;7.844;2023-02-01T06:07:19;5.55;;;3.42;;
50789;SDS011;37287;47.554;7.844;2023-02-01T06:09:48;7.30;;;4.40;;
50789;SDS011;37287;47.554;7.844;2023-02-01T06:12:15;5.70;;;3.90;;
50789;SDS011;37287;47.554;7.844;2023-02-01T06:14:41;5.15;;;4.05;;
50789;SDS011;37287;47.554;7.844;2023-02-01T06:17:11;7.70;;;4.40;;
50789;SDS011;37287;47.554;7.844;2023-02-01T06:19:37;6.35;;;4.20;;
50789;SDS011;37287;47.554;7.844;2023-02-01T06:22:04;4.60;;;3.70;;
50789;SDS011;37287;47.554;7.844;2023-02-01T06:24:34;5.68;;;4.00;;
50789;SDS011;37287;47.554;7.844;2023-02-01T06:27:01;6.35;;;3.30;;
50789;SDS011;37287;47.554;7.844;2023-02-01T06:29:27;6.60;;;4.25;;
50789;SDS011;37287;47.554;7.844;2023-02-01T06:31:54;6.15;;;4.13;;
50789;SDS011;37287;47.554;7.844;2023-02-01T06:34:21;4.28;;;3.28;;
50789;SDS011;37287;47.554;7.844;2023-02-01T06:36:50;5.65;;;4.13;;
50789;SDS011;37287;47.554;7.844;2023-02-01T06:39:16;4.85;;;3.58;;
50789;SDS011;37287;47.554;7.844;2023-02-01T06:41:46;6.93;;;4.30;;
50789;SDS011;37287;47.554;7.844;2023-02-01T06:44:14;6.70;;;5.25;;
50789;SDS011;37287;47.554;7.844;2023-02-01T06:46:43;4.70;;;3.67;;
50789;SDS011;37287;47.554;7.844;2023-02-01T06:49:12;5.50;;;4.28;;
50789;SDS011;37287;47.554;7.844;2023-02-01T06:51:38;5.15;;;3.80;;
50789;SDS011;37287;47.554;7.844;2023-02-01T06:54:05;5.90;;;3.60;;
50789;SDS011;37287;47.554;7.844;2023-02-01T06:56:31;5.85;;;4.25;;
50789;SDS011;37287;47.554;7.844;2023-02-01T06:59:05;6.05;;;3.80;;
50789;SDS011;37287;47.554;7.844;2023-02-01T07:01:36;5.33;;;3.90;;
50789;SDS011;37287;47.554;7.844;2023-02-01T07:04:03;3.70;;;3.30;;
50789;SDS011;37287;47.554;7.844;2023-02-01T07:06:29;4.90;;;3.53;;
50789;SDS011;37287;47.554;7.844;2023-02-01T07:08:58;5.57;;;3.65;;
50789;SDS011;37287;47.554;7.844;2023-02-01T07:11:26;4.53;;;3.00;;
50789;SDS011;37287;47.554;7.844;2023-02-01T07:13:54;6.07;;;4.22;;
50789;SDS011;37287;47.554;7.844;2023-02-01T07:16:20;9.23;;;4.07;;
50789;SDS011;37287;47.554;7.844;2023-02-01T07:18:49;5.20;;;3.85;;
50789;SDS011;37287;47.554;7.844;2023-02-01T07:21:17;5.13;;;3.92;;
50789;SDS011;37287;47.554;7.844;2023-02-01T07:23:44;4.95;;;3.35;;
50789;SDS011;37287;47.554;7.844;2023-02-01T07:26:11;5.22;;;4.03;;
50789;SDS011;37287;47.554;7.844;2023-02-01T07:28:40;6.65;;;3.63;;
50789;SDS011;37287;47.554;7.844;2023-02-01T07:31:12;5.10;;;3.70;;
50789;SDS011;37287;47.554;7.844;2023-02-01T07:33:51;5.07;;;3.83;;
50789;SDS011;37287;47.554;7.844;2023-02-01T07:36:18;4.47;;;3.42;;
50789;SDS011;37287;47.554;7.844;2023-02-01T07:38:45;8.25;;;3.67;;
50789;SDS011;37287;47.554;7.844;2023-02-01T07:41:15;4.65;;;3.65;;
50789;SDS011;37287;47.554;7.844;2023-02-01T07:43:53;5.40;;;3.50;;
50789;SDS011;37287;47.554;7.844;2023-02-01T07:46:20;4.72;;;3.53;;
50789;SDS011;37287;47.554;7.844;2023-02-01T07:48:47;4.65;;;3.40;;
50789;SDS011;37287;47.554;7.844;2023-02-01T07:51:16;4.05;;;2.75;;
50789;SDS011;37287;47.554;7.844;2023-02-01T07:53:43;5.05;;;3.20;;
50789;SDS011;37287;47.554;7.844;2023-02-01T07:56:12;3.47;;;3.00;;
50789;SDS011;37287;47.554;7.844;2023-02-01T07:58:40;4.65;;;3.00;;
50789;SDS011;37287;47.554;7.844;2023-02-01T08:01:15;4.15;;;3.10;;
50789;SDS011;37287;47.554;7.844;2023-02-01T08:03:49;4.30;;;3.30;;
50789;SDS011;37287;47.554;7.844;2023-02-01T08:06:19;3.42;;;3.03;;
50789;SDS011;37287;47.554;7.844;2023-02-01T08:08:53;6.97;;;2.78;;
50789;SDS011;37287;47.554;7.844;2023-02-01T08:11:20;3.30;;;2.70;;
50789;SDS011;37287;47.554;7.844;2023-02-01T08:13:48;4.43;;;2.83;;
50789;SDS011;37287;47.554;7.844;2023-02-01T08:16:15;5.05;;;3.20;;
50789;SDS011;37287;47.554;7.844;2023-02-01T08:18:43;3.00;;;2.70;;
50789;SDS011;37287;47.554;7.844;2023-02-01T08:21:18;4.43;;;3.13;;
50789;SDS011;37287;47.554;7.844;2023-02-01T08:23:55;3.85;;;3.13;;
50789;SDS011;37287;47.554;7.844;2023-02-01T08:26:23;4.40;;;3.25;;
50789;SDS011;37287;47.554;7.844;2023-02-01T08:28:55;4.30;;;2.85;;
50789;SDS011;37287;47.554;7.844;2023-02-01T08:31:25;5.00;;;3.63;;
50789;SDS011;37287;47.554;7.844;2023-02-01T08:33:55;6.10;;;4.28;;
50789;SDS011;37287;47.554;7.844;2023-02-01T08:36:28;4.43;;;3.33;;
50789;SDS011;37287;47.554;7.844;2023-02-01T08:38:56;3.50;;;2.95;;
50789;SDS011;37287;47.554;7.844;2023-02-01T08:41:24;5.47;;;3.00;;
50789;SDS011;37287;47.554;7.844;2023-02-01T08:43:52;6.60;;;2.85;;
50789;SDS011;37287;47.554;7.844;2023-02-01T08:46:22;7.57;;;2.63;;
50789;SDS011;37287;47.554;7.844;2023-02-01T08:48:50;9.10;;;2.60;;
50789;SDS011;37287;47.554;7.844;2023-02-01T08:51:17;3.70;;;2.30;;
50789;SDS011;37287;47.554;7.844;2023-02-01T08:53:48;2.70;;;2.13;;
50789;SDS011;37287;47.554;7.844;2023-02-01T08:56:16;3.42;;;2.40;;
50789;SDS011;37287;47.554;7.844;2023-02-01T08:59:07;3.03;;;2.08;;
50789;SDS011;37287;47.554;7.844;2023-02-01T09:01:40;3.20;;;1.80;;
50789;SDS011;37287;47.554;7.844;2023-02-01T09:04:07;2.72;;;2.25;;
50789;SDS011;37287;47.554;7.844;2023-02-01T09:06:33;2.17;;;1.92;;
50789;SDS011;37287;47.554;7.844;2023-02-01T09:09:02;2.55;;;2.20;;
50789;SDS011;37287;47.554;7.844;2023-02-01T09:11:29;2.90;;;1.95;;
50789;SDS011;37287;47.554;7.844;2023-02-01T09:13:55;1.98;;;1.80;;
50789;SDS011;37287;47.554;7.844;2023-02-01T09:16:24;2.90;;;1.60;;
50789;SDS011;37287;47.554;7.844;2023-02-01T09:18:51;2.95;;;1.75;;
50789;SDS011;37287;47.554;7.844;2023-02-01T09:21:26;2.17;;;1.60;;
50789;SDS011;37287;47.554;7.844;2023-02-01T09:23:55;3.22;;;1.60;;
50789;SDS011;37287;47.554;7.844;2023-02-01T09:26:22;2.33;;;1.55;;
50789;SDS011;37287;47.554;7.844;2023-02-01T09:28:57;1.48;;;1.35;;
50789;SDS011;37287;47.554;7.844;2023-02-01T09:31:30;1.50;;;1.40;;
50789;SDS011;37287;47.554;7.844;2023-02-01T09:33:57;1.60;;;1.42;;
50789;SDS011;37287;47.554;7.844;2023-02-01T09:36:23;1.40;;;1.30;;
50789;SDS011;37287;47.554;7.844;2023-02-01T09:38:52;2.22;;;1.63;;
50789;SDS011;37287;47.554;7.844;2023-02-01T09:41:26;2.55;;;1.70;;
50789;SDS011;37287;47.554;7.844;2023-02-01T09:46:35;2.38;;;1.70;;
50789;SDS011;37287;47.554;7.844;2023-02-01T09:49:08;2.70;;;1.88;;
50789;SDS011;37287;47.554;7.844;2023-02-01T09:51:44;2.47;;;1.70;;
50789;SDS011;37287;47.554;7.844;2023-02-01T09:54:22;4.10;;;2.10;;
50789;SDS011;37287;47.554;7.844;2023-02-01T09:56:53;2.85;;;1.85;;
50789;SDS011;37287;47.554;7.844;2023-02-01T09:59:39;2.53;;;1.95;;
50789;SDS011;37287;47.554;7.844;2023-02-01T10:02:20;2.47;;;1.80;;
50789;SDS011;37287;47.554;7.844;2023-02-01T10:04:49;3.72;;;1.83;;
50789;SDS011;37287;47.554;7.844;2023-02-01T10:11:06;6.05;;;2.10;;
50789;SDS011;37287;47.554;7.844;2023-02-01T10:13:09;5.90;;;1.92;;
50789;SDS011;37287;47.554;7.844;2023-02-01T10:15:48;2.55;;;1.67;;
50789;SDS011;37287;47.554;7.844;2023-02-01T10:18:37;5.50;;;2.08;;
50789;SDS011;37287;47.554;7.844;2023-02-01T10:22:18;5.57;;;2.08;;
50789;SDS011;37287;47.554;7.844;2023-02-01T10:27:08;3.80;;;1.83;;
50789;SDS011;37287;47.554;7.844;2023-02-01T10:29:42;4.70;;;1.67;;
50789;SDS011;37287;47.554;7.844;2023-02-01T10:32:20;7.18;;;2.28;;
50789;SDS011;37287;47.554;7.844;2023-02-01T10:34:52;5.63;;;2.00;;
50789;SDS011;37287;47.554;7.844;2023-02-01T10:37:30;2.95;;;1.63;;
50789;SDS011;37287;47.554;7.844;2023-02-01T10:40:20;5.22;;;2.22;;
50789;SDS011;37287;47.554;7.844;2023-02-01T10:42:53;4.05;;;2.17;;
50789;SDS011;37287;47.554;7.844;2023-02-01T10:45:25;5.43;;;1.90;;
50789;SDS011;37287;47.554;7.844;2023-02-01T10:47:55;8.45;;;2.75;;
50789;SDS011;37287;47.554;7.844;2023-02-01T10:56:23;8.13;;;2.20;;
50789;SDS011;37287;47.554;7.844;2023-02-01T10:58:52;12.05;;;2.75;;
50789;SDS011;37287;47.554;7.844;2023-02-01T11:01:39;7.68;;;2.40;;
50789;SDS011;37287;47.554;7.844;2023-02-01T11:04:15;7.38;;;2.50;;
50789;SDS011;37287;47.554;7.844;2023-02-01T11:09:20;5.50;;;2.10;;
50789;SDS011;37287;47.554;7.844;2023-02-01T11:14:18;6.43;;;2.47;;
50789;SDS011;37287;47.554;7.844;2023-02-01T11:16:55;7.40;;;2.30;;
50789;SDS011;37287;47.554;7.844;2023-02-01T11:19:29;5.10;;;2.45;;
50789;SDS011;37287;47.554;7.844;2023-02-01T11:21:57;5.70;;;2.20;;
50789;SDS011;37287;47.554;7.844;2023-02-01T11:24:27;6.05;;;2.40;;
50789;SDS011;37287;47.554;7.844;2023-02-01T11:26:58;12.43;;;2.72;;
50789;SDS011;37287;47.554;7.844;2023-02-01T11:29:34;14.38;;;2.72;;
50789;SDS011;37287;47.554;7.844;2023-02-01T11:32:09;4.47;;;2.05;;
50789;SDS011;37287;47.554;7.844;2023-02-01T11:34:38;7.07;;;2.75;;
50789;SDS011;37287;47.554;7.844;2023-02-01T11:37:14;8.40;;;2.80;;
50789;SDS011;37287;47.554;7.844;2023-02-01T11:39:58;9.77;;;2.97;;
50789;SDS011;37287;47.554;7.844;2023-02-01T11:42:27;9.45;;;3.20;;
50789;SDS011;37287;47.554;7.844;2023-02-01T11:47:44;10.52;;;3.05;;
50789;SDS011;37287;47.554;7.844;2023-02-01T11:50:18;8.57;;;2.95;;
50789;SDS011;37287;47.554;7.844;2023-02-01T12:03:57;7.03;;;2.60;;
50789;SDS011;37287;47.554;7.844;2023-02-01T12:14:42;9.68;;;3.00;;
50789;SDS011;37287;47.554;7.844;2023-02-01T12:17:38;7.55;;;2.80;;
50789;SDS011;37287;47.554;7.844;2023-02-01T12:20:11;5.55;;;2.78;;
50789;SDS011;37287;47.554;7.844;2023-02-01T12:25:18;6.38;;;2.35;;
50789;SDS011;37287;47.554;7.844;2023-02-01T12:31:01;12.90;;;2.72;;
50789;SDS011;37287;47.554;7.844;2023-02-01T12:39:44;7.43;;;3.08;;
50789;SDS011;37287;47.554;7.844;2023-02-01T12:42:41;12.75;;;2.85;;
50789;SDS011;37287;47.554;7.844;2023-02-01T12:45:14;12.07;;;3.13;;
50789;SDS011;37287;47.554;7.844;2023-02-01T12:47:48;12.25;;;3.20;;
50789;SDS011;37287;47.554;7.844;2023-02-01T12:50:22;8.60;;;3.13;;
50789;SDS011;37287;47.554;7.844;2023-02-01T12:52:54;10.15;;;2.95;;
50789;SDS011;37287;47.554;7.844;2023-02-01T12:55:34;9.80;;;2.85;;
50789;SDS011;37287;47.554;7.844;2023-02-01T12:58:13;11.38;;;3.08;;
50789;SDS011;37287;47.554;7.844;2023-02-01T13:01:28;10.70;;;3.20;;
50789;SDS011;37287;47.554;7.844;2023-02-01T13:03:39;9.80;;;2.95;;
50789;SDS011;37287;47.554;7.844;2023-02-01T13:06:19;7.97;;;2.55;;
50789;SDS011;37287;47.554;7.844;2023-02-01T13:08:52;13.88;;;2.78;;
50789;SDS011;37287;47.554;7.844;2023-02-01T13:11:24;10.43;;;2.90;;
50789;SDS011;37287;47.554;7.844;2023-02-01T13:16:46;9.35;;;2.90;;
50789;SDS011;37287;47.554;7.844;2023-02-01T13:19:36;11.38;;;3.00;;
50789;SDS011;37287;47.554;7.844;2023-02-01T13:22:13;7.47;;;2.28;;
50789;SDS011;37287;47.554;7.844;2023-02-01T13:24:45;12.05;;;2.60;;
50789;SDS011;37287;47.554;7.844;2023-02-01T13:27:17;11.30;;;2.83;;
50789;SDS011;37287;47.554;7.844;2023-02-01T13:29:50;14.60;;;3.17;;
50789;SDS011;37287;47.554;7.844;2023-02-01T13:44:11;8.30;;;2.70;;
50789;SDS011;37287;47.554;7.844;2023-02-01T13:46:43;15.13;;;3.22;;
50789;SDS011;37287;47.554;7.844;2023-02-01T13:49:21;8.30;;;3.15;;
50789;SDS011;37287;47.554;7.844;2023-02-01T13:51:52;14.60;;;3.15;;
50789;SDS011;37287;47.554;7.844;2023-02-01T13:54:36;18.50;;;3.42;;
50789;SDS011;37287;47.554;7.844;2023-02-01T13:57:34;14.07;;;3.22;;
50789;SDS011;37287;47.554;7.844;2023-02-01T14:13:33;16.15;;;3.38;;
50789;SDS011;37287;47.554;7.844;2023-02-01T14:26:26;12.23;;;3.40;;
50789;SDS011;37287;47.554;7.844;2023-02-01T14:29:12;13.57;;;3.75;;
50789;SDS011;37287;47.554;7.844;2023-02-01T14:31:51;11.18;;;3.33;;
50789;SDS011;37287;47.554;7.844;2023-02-01T14:39:52;11.45;;;3.20;;
50789;SDS011;37287;47.554;7.844;2023-02-01T14:47:45;14.30;;;3.50;;
50789;SDS011;37287;47.554;7.844;2023-02-01T14:55:40;14.18;;;3.15;;
50789;SDS011;37287;47.554;7.844;2023-02-01T14:58:16;15.70;;;3.75;;
50789;SDS011;37287;47.554;7.844;2023-02-01T15:00:47;15.05;;;3.70;;
50789;SDS011;37287;47.554;7.844;2023-02-01T15:06:02;13.80;;;3.30;;
50789;SDS011;37287;47.554;7.844;2023-02-01T15:08:33;15.88;;;3.45;;
50789;SDS011;37287;47.554;7.844;2023-02-01T15:11:02;16.17;;;3.15;;
50789;SDS011;37287;47.554;7.844;2023-02-01T15:13:36;13.07;;;3.60;;
50789;SDS011;37287;47.554;7.844;2023-02-01T15:16:13;13.07;;;3.25;;
50789;SDS011;37287;47.554;7.844;2023-02-01T15:18:44;7.57;;;3.03;;
50789;SDS011;37287;47.554;7.844;2023-02-01T15:21:18;12.80;;;2.75;;
50789;SDS011;37287;47.554;7.844;2023-02-01T15:24:12;11.18;;;2.60;;
50789;SDS011;37287;47.554;7.844;2023-02-01T15:26:49;10.15;;;3.05;;
50789;SDS011;37287;47.554;7.844;2023-02-01T15:29:18;10.95;;;3.05;;
50789;SDS011;37287;47.554;7.844;2023-02-01T15:31:47;12.63;;;3.40;;
50789;SDS011;37287;47.554;7.844;2023-02-01T15:34:16;13.57;;;3.53;;
50789;SDS011;37287;47.554;7.844;2023-02-01T15:36:43;10.15;;;3.17;;
50789;SDS011;37287;47.554;7.844;2023-02-01T15:39:27;10.77;;;2.88;;
50789;SDS011;37287;47.554;7.844;2023-02-01T15:41:59;14.63;;;3.55;;
50789;SDS011;37287;47.554;7.844;2023-02-01T15:44:41;7.40;;;2.80;;
50789;SDS011;37287;47.554;7.844;2023-02-01T15:47:16;14.18;;;3.22;;
50789;SDS011;37287;47.554;7.844;2023-02-01T15:49:50;9.98;;;2.83;;
50789;SDS011;37287;47.554;7.844;2023-02-01T15:52:29;18.02;;;3.90;;
50789;SDS011;37287;47.554;7.844;2023-02-01T15:55:05;17.05;;;2.95;;
50789;SDS011;37287;47.554;7.844;2023-02-01T15:57:38;12.52;;;3.13;;
50789;SDS011;37287;47.554;7.844;2023-02-01T16:00:08;10.93;;;2.90;;
50789;SDS011;37287;47.554;7.844;2023-02-01T16:02:52;6.57;;;2.75;;
50789;SDS011;37287;47.554;7.844;2023-02-01T16:08:04;10.38;;;3.00;;
50789;SDS011;37287;47.554;7.844;2023-02-01T16:10:52;18.35;;;3.13;;
50789;SDS011;37287;47.554;7.844;2023-02-01T16:13:25;14.70;;;3.08;;
50789;SDS011;37287;47.554;7.844;2023-02-01T16:15:52;11.73;;;3.20;;
50789;SDS011;37287;47.554;7.844;2023-02-01T16:18:19;12.00;;;3.35;;
50789;SDS011;37287;47.554;7.844;2023-02-01T16:20:47;15.55;;;3.22;;
50789;SDS011;37287;47.554;7.844;2023-02-01T16:23:14;12.90;;;2.92;;
50789;SDS011;37287;47.554;7.844;2023-02-01T16:25:46;13.38;;;2.50;;
50789;SDS011;37287;47.554;7.844;2023-02-01T16:28:13;11.65;;;2.97;;
50789;SDS011;37287;47.554;7.844;2023-02-01T16:30:39;10.55;;;2.88;;
50789;SDS011;37287;47.554;7.844;2023-02-01T16:33:08;8.23;;;2.92;;
50789;SDS011;37287;47.554;7.844;2023-02-01T16:35:41;12.30;;;2.90;;
50789;SDS011;37287;47.554;7.844;2023-02-01T16:38:12;10.85;;;2.60;;
50789;SDS011;37287;47.554;7.844;2023-02-01T16:40:45;11.32;;;2.90;;
50789;SDS011;37287;47.554;7.844;2023-02-01T16:43:13;11.50;;;2.42;;
50789;SDS011;37287;47.554;7.844;2023-02-01T16:45:44;11.73;;;2.63;;
50789;SDS011;37287;47.554;7.844;2023-02-01T16:48:26;10.95;;;2.88;;
50789;SDS011;37287;47.554;7.844;2023-02-01T16:51:02;8.27;;;2.58;;
50789;SDS011;37287;47.554;7.844;2023-02-01T16:53:34;12.80;;;2.88;;
50789;SDS011;37287;47.554;7.844;2023-02-01T16:56:20;11.15;;;2.83;;
50789;SDS011;37287;47.554;7.844;2023-02-01T16:58:52;14.23;;;3.08;;
50789;SDS011;37287;47.554;7.844;2023-02-01T17:01:20;15.43;;;2.83;;
50789;SDS011;37287;47.554;7.844;2023-02-01T17:03:47;7.68;;;2.70;;
50789;SDS011;37287;47.554;7.844;2023-02-01T17:06:15;9.73;;;3.00;;
50789;SDS011;37287;47.554;7.844;2023-02-01T17:08:45;12.48;;;2.83;;
50789;SDS011;37287;47.554;7.844;2023-02-01T17:11:24;20.83;;;3.03;;
50789;SDS011;37287;47.554;7.844;2023-02-01T17:13:51;11.07;;;2.40;;
50789;SDS011;37287;47.554;7.844;2023-02-01T17:16:26;8.57;;;2.63;;
50789;SDS011;37287;47.554;7.844;2023-02-01T17:19:02;16.67;;;3.45;;
50789;SDS011;37287;47.554;7.844;2023-02-01T17:21:34;12.25;;;3.05;;
50789;SDS011;37287;47.554;7.844;2023-02-01T17:24:12;19.27;;;3.10;;
50789;SDS011;37287;47.554;7.844;2023-02-01T17:26:41;14.02;;;3.03;;
50789;SDS011;37287;47.554;7.844;2023-02-01T17:29:09;16.10;;;2.97;;
50789;SDS011;37287;47.554;7.844;2023-02-01T17:31:37;15.43;;;3.10;;